Alford, Indiana
Current Conditions -  °F | °C
As of 12:15 AM on Friday 31 Oct 2014 (Local Time) from KDCY Reporting Station
Drizzle Drizzle  
Wind Chill: 47°   Ceiling: 5500
Heat Index: 47°   Visibility: 10mi
Dew Point: 46°   Wind: 0mph
Humidity: 96%   Direction: NA
Pressure: 30.05"   Gusts: NA
Location:  38.4723°N, 87.3105°W
Report Text: KDCY 310515Z AUTO 00000KT 10SM DZ SCT040 OVC055 08/08 A3005 RMK AO2 T00810075
Loading
Personal Weather Stations






























Interactive Weather Map
Tropical Storm Tracking
New forecast layout! Learn more

10-Day Weather Forecast

Advertisements
Track Severe Weather on mobile